sensor_id;sensor_type;location;lat;lon;timestamp;P1;durP1;ratioP1;P2;durP2;ratioP2
44428;SDS011;30134;47.866;-4.222;2024-02-28T00:02:07;28.27;;;22.92;;
44428;SDS011;30134;47.866;-4.222;2024-02-28T00:04:33;27.70;;;23.73;;
44428;SDS011;30134;47.866;-4.222;2024-02-28T00:06:59;29.45;;;24.48;;
44428;SDS011;30134;47.866;-4.222;2024-02-28T00:09:25;27.33;;;23.90;;
44428;SDS011;30134;47.866;-4.222;2024-02-28T00:11:57;25.25;;;22.40;;
44428;SDS011;30134;47.866;-4.222;2024-02-28T00:14:23;25.00;;;22.30;;
44428;SDS011;30134;47.866;-4.222;2024-02-28T00:16:49;25.25;;;20.67;;
44428;SDS011;30134;47.866;-4.222;2024-02-28T00:19:15;25.25;;;21.00;;
44428;SDS011;30134;47.866;-4.222;2024-02-28T00:21:43;25.17;;;21.13;;
44428;SDS011;30134;47.866;-4.222;2024-02-28T00:24:09;22.25;;;19.17;;
44428;SDS011;30134;47.866;-4.222;2024-02-28T00:26:36;22.42;;;20.00;;
44428;SDS011;30134;47.866;-4.222;2024-02-28T00:29:06;23.38;;;19.38;;
44428;SDS011;30134;47.866;-4.222;2024-02-28T00:31:32;22.95;;;19.00;;
44428;SDS011;30134;47.866;-4.222;2024-02-28T00:33:58;20.90;;;18.58;;
44428;SDS011;30134;47.866;-4.222;2024-02-28T00:36:24;21.08;;;17.95;;
44428;SDS011;30134;47.866;-4.222;2024-02-28T00:38:50;19.73;;;17.13;;
44428;SDS011;30134;47.866;-4.222;2024-02-28T00:41:16;20.95;;;17.58;;
44428;SDS011;30134;47.866;-4.222;2024-02-28T00:43:42;23.08;;;18.50;;
44428;SDS011;30134;47.866;-4.222;2024-02-28T00:46:08;19.88;;;16.67;;
44428;SDS011;30134;47.866;-4.222;2024-02-28T00:48:40;20.70;;;16.38;;
44428;SDS011;30134;47.866;-4.222;2024-02-28T00:51:06;18.00;;;15.93;;
44428;SDS011;30134;47.866;-4.222;2024-02-28T00:53:35;18.65;;;15.85;;
44428;SDS011;30134;47.866;-4.222;2024-02-28T00:56:01;19.38;;;16.42;;
44428;SDS011;30134;47.866;-4.222;2024-02-28T00:58:28;19.15;;;16.02;;
44428;SDS011;30134;47.866;-4.222;2024-02-28T01:00:55;18.42;;;15.63;;
44428;SDS011;30134;47.866;-4.222;2024-02-28T01:03:22;19.00;;;16.27;;
44428;SDS011;30134;47.866;-4.222;2024-02-28T01:05:48;16.42;;;14.35;;
44428;SDS011;30134;47.866;-4.222;2024-02-28T01:08:16;17.38;;;15.02;;
44428;SDS011;30134;47.866;-4.222;2024-02-28T01:10:45;15.85;;;14.07;;
44428;SDS011;30134;47.866;-4.222;2024-02-28T01:13:18;16.38;;;13.75;;
44428;SDS011;30134;47.866;-4.222;2024-02-28T01:15:44;15.00;;;12.52;;
44428;SDS011;30134;47.866;-4.222;2024-02-28T01:18:10;15.10;;;13.32;;
44428;SDS011;30134;47.866;-4.222;2024-02-28T01:20:36;14.52;;;12.57;;
44428;SDS011;30134;47.866;-4.222;2024-02-28T01:23:02;15.65;;;13.40;;
44428;SDS011;30134;47.866;-4.222;2024-02-28T01:25:28;15.07;;;13.30;;
44428;SDS011;30134;47.866;-4.222;2024-02-28T01:27:55;18.02;;;13.50;;
44428;SDS011;30134;47.866;-4.222;2024-02-28T01:30:25;15.75;;;13.05;;
44428;SDS011;30134;47.866;-4.222;2024-02-28T01:32:51;15.43;;;12.63;;
44428;SDS011;30134;47.866;-4.222;2024-02-28T01:35:17;13.73;;;11.77;;
44428;SDS011;30134;47.866;-4.222;2024-02-28T01:37:43;14.10;;;11.70;;
44428;SDS011;30134;47.866;-4.222;2024-02-28T01:40:09;14.40;;;11.57;;
44428;SDS011;30134;47.866;-4.222;2024-02-28T01:42:36;13.77;;;11.20;;
44428;SDS011;30134;47.866;-4.222;2024-02-28T01:45:02;12.93;;;10.95;;
44428;SDS011;30134;47.866;-4.222;2024-02-28T01:47:28;12.52;;;11.20;;
44428;SDS011;30134;47.866;-4.222;2024-02-28T01:49:55;13.02;;;10.88;;
44428;SDS011;30134;47.866;-4.222;2024-02-28T01:52:21;13.43;;;11.02;;
44428;SDS011;30134;47.866;-4.222;2024-02-28T01:54:47;12.88;;;10.25;;
44428;SDS011;30134;47.866;-4.222;2024-02-28T01:57:13;12.45;;;10.70;;
44428;SDS011;30134;47.866;-4.222;2024-02-28T01:59:40;11.15;;;9.75;;
44428;SDS011;30134;47.866;-4.222;2024-02-28T02:02:07;11.52;;;9.65;;
44428;SDS011;30134;47.866;-4.222;2024-02-28T02:04:34;11.10;;;9.07;;
44428;SDS011;30134;47.866;-4.222;2024-02-28T02:06:59;12.07;;;10.60;;
44428;SDS011;30134;47.866;-4.222;2024-02-28T02:09:26;10.27;;;8.93;;
44428;SDS011;30134;47.866;-4.222;2024-02-28T02:11:52;10.93;;;9.40;;
44428;SDS011;30134;47.866;-4.222;2024-02-28T02:14:24;10.90;;;9.35;;
44428;SDS011;30134;47.866;-4.222;2024-02-28T02:16:50;12.20;;;9.13;;
44428;SDS011;30134;47.866;-4.222;2024-02-28T02:19:16;10.57;;;8.75;;
44428;SDS011;30134;47.866;-4.222;2024-02-28T02:21:52;10.65;;;8.65;;
44428;SDS011;30134;47.866;-4.222;2024-02-28T02:24:22;10.32;;;8.93;;
44428;SDS011;30134;47.866;-4.222;2024-02-28T02:26:48;9.65;;;8.45;;
44428;SDS011;30134;47.866;-4.222;2024-02-28T02:29:17;10.02;;;8.38;;
44428;SDS011;30134;47.866;-4.222;2024-02-28T02:31:43;9.15;;;8.20;;
44428;SDS011;30134;47.866;-4.222;2024-02-28T02:34:09;9.60;;;7.97;;
44428;SDS011;30134;47.866;-4.222;2024-02-28T02:36:35;9.48;;;8.27;;
44428;SDS011;30134;47.866;-4.222;2024-02-28T02:39:01;11.73;;;8.15;;
44428;SDS011;30134;47.866;-4.222;2024-02-28T02:41:27;9.30;;;8.20;;
44428;SDS011;30134;47.866;-4.222;2024-02-28T02:43:53;8.38;;;7.47;;
44428;SDS011;30134;47.866;-4.222;2024-02-28T02:46:19;7.82;;;6.88;;
44428;SDS011;30134;47.866;-4.222;2024-02-28T02:48:45;8.93;;;7.40;;
44428;SDS011;30134;47.866;-4.222;2024-02-28T02:51:11;8.90;;;7.75;;
44428;SDS011;30134;47.866;-4.222;2024-02-28T02:53:37;8.65;;;6.78;;
44428;SDS011;30134;47.866;-4.222;2024-02-28T02:56:04;8.13;;;6.85;;
44428;SDS011;30134;47.866;-4.222;2024-02-28T02:58:30;7.65;;;6.85;;
44428;SDS011;30134;47.866;-4.222;2024-02-28T03:00:56;7.40;;;6.20;;
44428;SDS011;30134;47.866;-4.222;2024-02-28T03:03:22;7.18;;;6.47;;
44428;SDS011;30134;47.866;-4.222;2024-02-28T03:05:48;7.40;;;6.47;;
44428;SDS011;30134;47.866;-4.222;2024-02-28T03:08:15;9.55;;;7.10;;
44428;SDS011;30134;47.866;-4.222;2024-02-28T03:10:41;8.50;;;6.82;;
44428;SDS011;30134;47.866;-4.222;2024-02-28T03:13:07;7.90;;;6.88;;
44428;SDS011;30134;47.866;-4.222;2024-02-28T03:15:39;7.20;;;6.50;;
44428;SDS011;30134;47.866;-4.222;2024-02-28T03:18:05;8.10;;;6.80;;
44428;SDS011;30134;47.866;-4.222;2024-02-28T03:20:31;6.75;;;5.60;;
44428;SDS011;30134;47.866;-4.222;2024-02-28T03:22:57;8.18;;;6.18;;
44428;SDS011;30134;47.866;-4.222;2024-02-28T03:25:23;7.47;;;6.43;;
44428;SDS011;30134;47.866;-4.222;2024-02-28T03:27:49;7.68;;;5.97;;
44428;SDS011;30134;47.866;-4.222;2024-02-28T03:30:15;7.38;;;6.47;;
44428;SDS011;30134;47.866;-4.222;2024-02-28T03:32:41;6.78;;;6.05;;
44428;SDS011;30134;47.866;-4.222;2024-02-28T03:35:08;6.18;;;5.15;;
44428;SDS011;30134;47.866;-4.222;2024-02-28T03:37:34;6.88;;;5.82;;
44428;SDS011;30134;47.866;-4.222;2024-02-28T03:40:00;6.78;;;6.07;;
44428;SDS011;30134;47.866;-4.222;2024-02-28T03:42:26;6.32;;;5.20;;
44428;SDS011;30134;47.866;-4.222;2024-02-28T03:44:52;5.35;;;4.78;;
44428;SDS011;30134;47.866;-4.222;2024-02-28T03:47:18;6.32;;;5.68;;
44428;SDS011;30134;47.866;-4.222;2024-02-28T03:49:44;5.93;;;5.05;;
44428;SDS011;30134;47.866;-4.222;2024-02-28T03:52:12;6.03;;;4.93;;
44428;SDS011;30134;47.866;-4.222;2024-02-28T03:54:41;6.32;;;4.95;;
44428;SDS011;30134;47.866;-4.222;2024-02-28T03:57:08;5.70;;;5.05;;
44428;SDS011;30134;47.866;-4.222;2024-02-28T03:59:34;5.53;;;4.32;;
44428;SDS011;30134;47.866;-4.222;2024-02-28T04:02:00;6.68;;;5.78;;
44428;SDS011;30134;47.866;-4.222;2024-02-28T04:04:26;6.10;;;4.60;;
44428;SDS011;30134;47.866;-4.222;2024-02-28T04:06:52;5.80;;;4.95;;
44428;SDS011;30134;47.866;-4.222;2024-02-28T04:09:18;6.38;;;5.18;;
44428;SDS011;30134;47.866;-4.222;2024-02-28T04:11:45;5.40;;;4.30;;
44428;SDS011;30134;47.866;-4.222;2024-02-28T04:14:11;4.45;;;4.00;;
44428;SDS011;30134;47.866;-4.222;2024-02-28T04:16:43;5.82;;;4.40;;
44428;SDS011;30134;47.866;-4.222;2024-02-28T04:19:13;5.57;;;4.57;;
44428;SDS011;30134;47.866;-4.222;2024-02-28T04:21:39;4.82;;;4.32;;
44428;SDS011;30134;47.866;-4.222;2024-02-28T04:24:06;5.05;;;4.40;;
44428;SDS011;30134;47.866;-4.222;2024-02-28T04:26:33;4.47;;;4.03;;
44428;SDS011;30134;47.866;-4.222;2024-02-28T04:29:00;6.00;;;5.10;;
44428;SDS011;30134;47.866;-4.222;2024-02-28T04:31:28;6.05;;;4.25;;
44428;SDS011;30134;47.866;-4.222;2024-02-28T04:33:54;4.78;;;4.10;;
44428;SDS011;30134;47.866;-4.222;2024-02-28T04:36:20;5.55;;;4.10;;
44428;SDS011;30134;47.866;-4.222;2024-02-28T04:38:46;4.30;;;3.72;;
44428;SDS011;30134;47.866;-4.222;2024-02-28T04:41:12;5.40;;;4.40;;
44428;SDS011;30134;47.866;-4.222;2024-02-28T04:43:38;3.75;;;3.35;;
44428;SDS011;30134;47.866;-4.222;2024-02-28T04:46:05;4.00;;;3.38;;
44428;SDS011;30134;47.866;-4.222;2024-02-28T04:48:31;3.90;;;3.45;;
44428;SDS011;30134;47.866;-4.222;2024-02-28T04:50:57;4.07;;;3.50;;
44428;SDS011;30134;47.866;-4.222;2024-02-28T04:53:25;4.45;;;4.00;;
44428;SDS011;30134;47.866;-4.222;2024-02-28T04:55:51;4.28;;;3.63;;
44428;SDS011;30134;47.866;-4.222;2024-02-28T04:58:17;4.32;;;3.40;;
44428;SDS011;30134;47.866;-4.222;2024-02-28T05:00:43;3.75;;;3.33;;
44428;SDS011;30134;47.866;-4.222;2024-02-28T05:03:09;4.68;;;3.63;;
44428;SDS011;30134;47.866;-4.222;2024-02-28T05:05:35;3.90;;;3.50;;
44428;SDS011;30134;47.866;-4.222;2024-02-28T05:08:01;3.85;;;3.40;;
44428;SDS011;30134;47.866;-4.222;2024-02-28T05:10:27;3.83;;;3.38;;
44428;SDS011;30134;47.866;-4.222;2024-02-28T05:12:53;3.95;;;2.85;;
44428;SDS011;30134;47.866;-4.222;2024-02-28T05:15:19;3.30;;;3.00;;
44428;SDS011;30134;47.866;-4.222;2024-02-28T05:17:51;3.97;;;3.30;;
44428;SDS011;30134;47.866;-4.222;2024-02-28T05:20:17;3.40;;;2.88;;
44428;SDS011;30134;47.866;-4.222;2024-02-28T05:22:43;4.10;;;3.17;;
44428;SDS011;30134;47.866;-4.222;2024-02-28T05:25:09;3.20;;;2.90;;
44428;SDS011;30134;47.866;-4.222;2024-02-28T05:27:35;3.60;;;2.90;;
44428;SDS011;30134;47.866;-4.222;2024-02-28T05:30:01;4.32;;;3.10;;
44428;SDS011;30134;47.866;-4.222;2024-02-28T05:32:31;3.30;;;2.80;;
44428;SDS011;30134;47.866;-4.222;2024-02-28T05:34:58;3.33;;;3.00;;
44428;SDS011;30134;47.866;-4.222;2024-02-28T05:37:24;3.30;;;2.65;;
44428;SDS011;30134;47.866;-4.222;2024-02-28T05:39:50;3.25;;;2.72;;
44428;SDS011;30134;47.866;-4.222;2024-02-28T05:42:16;3.05;;;2.75;;
44428;SDS011;30134;47.866;-4.222;2024-02-28T05:44:50;3.30;;;2.70;;
44428;SDS011;30134;47.866;-4.222;2024-02-28T05:47:16;2.70;;;2.10;;
44428;SDS011;30134;47.866;-4.222;2024-02-28T05:49:42;3.03;;;2.63;;
44428;SDS011;30134;47.866;-4.222;2024-02-28T05:52:09;3.78;;;2.47;;
44428;SDS011;30134;47.866;-4.222;2024-02-28T05:54:35;3.25;;;2.95;;
44428;SDS011;30134;47.866;-4.222;2024-02-28T05:57:01;2.70;;;2.25;;
44428;SDS011;30134;47.866;-4.222;2024-02-28T05:59:30;3.40;;;3.10;;
44428;SDS011;30134;47.866;-4.222;2024-02-28T06:01:56;2.97;;;2.40;;
44428;SDS011;30134;47.866;-4.222;2024-02-28T06:04:22;2.80;;;2.35;;
44428;SDS011;30134;47.866;-4.222;2024-02-28T06:06:49;3.13;;;2.65;;
44428;SDS011;30134;47.866;-4.222;2024-02-28T06:09:15;3.28;;;2.25;;
44428;SDS011;30134;47.866;-4.222;2024-02-28T06:11:44;3.00;;;2.70;;
44428;SDS011;30134;47.866;-4.222;2024-02-28T06:14:10;2.45;;;2.25;;
44428;SDS011;30134;47.866;-4.222;2024-02-28T06:16:36;2.42;;;2.22;;
44428;SDS011;30134;47.866;-4.222;2024-02-28T06:19:08;3.08;;;2.42;;
44428;SDS011;30134;47.866;-4.222;2024-02-28T06:21:34;4.57;;;2.47;;
44428;SDS011;30134;47.866;-4.222;2024-02-28T06:24:00;4.35;;;2.97;;
44428;SDS011;30134;47.866;-4.222;2024-02-28T06:26:26;12.20;;;9.70;;
44428;SDS011;30134;47.866;-4.222;2024-02-28T06:28:52;27.90;;;21.08;;
44428;SDS011;30134;47.866;-4.222;2024-02-28T06:31:18;39.10;;;30.52;;
44428;SDS011;30134;47.866;-4.222;2024-02-28T06:33:44;46.75;;;36.42;;
44428;SDS011;30134;47.866;-4.222;2024-02-28T06:36:11;49.03;;;40.17;;
44428;SDS011;30134;47.866;-4.222;2024-02-28T06:38:38;50.50;;;40.95;;
44428;SDS011;30134;47.866;-4.222;2024-02-28T06:41:04;53.00;;;42.25;;
44428;SDS011;30134;47.866;-4.222;2024-02-28T06:43:32;55.72;;;44.47;;
44428;SDS011;30134;47.866;-4.222;2024-02-28T06:46:00;53.50;;;42.55;;
44428;SDS011;30134;47.866;-4.222;2024-02-28T06:48:27;49.25;;;39.28;;
44428;SDS011;30134;47.866;-4.222;2024-02-28T06:50:54;49.08;;;39.28;;
44428;SDS011;30134;47.866;-4.222;2024-02-28T06:53:21;43.65;;;35.03;;
44428;SDS011;30134;47.866;-4.222;2024-02-28T06:55:47;41.88;;;34.97;;
44428;SDS011;30134;47.866;-4.222;2024-02-28T06:58:14;40.38;;;32.97;;
44428;SDS011;30134;47.866;-4.222;2024-02-28T07:00:40;38.05;;;31.15;;
44428;SDS011;30134;47.866;-4.222;2024-02-28T07:03:06;38.83;;;30.77;;
44428;SDS011;30134;47.866;-4.222;2024-02-28T07:05:32;36.85;;;29.63;;
44428;SDS011;30134;47.866;-4.222;2024-02-28T07:07:59;35.88;;;28.48;;
44428;SDS011;30134;47.866;-4.222;2024-02-28T07:10:26;34.78;;;28.33;;
44428;SDS011;30134;47.866;-4.222;2024-02-28T07:12:52;36.22;;;28.85;;
44428;SDS011;30134;47.866;-4.222;2024-02-28T07:15:18;34.13;;;27.52;;
44428;SDS011;30134;47.866;-4.222;2024-02-28T07:17:46;34.67;;;28.30;;
44428;SDS011;30134;47.866;-4.222;2024-02-28T07:20:19;33.45;;;26.15;;
44428;SDS011;30134;47.866;-4.222;2024-02-28T07:22:45;34.50;;;26.90;;
44428;SDS011;30134;47.866;-4.222;2024-02-28T07:25:11;31.83;;;25.10;;
44428;SDS011;30134;47.866;-4.222;2024-02-28T07:27:37;31.65;;;25.17;;
44428;SDS011;30134;47.866;-4.222;2024-02-28T07:30:04;30.40;;;23.70;;
44428;SDS011;30134;47.866;-4.222;2024-02-28T07:32:31;27.85;;;22.50;;
44428;SDS011;30134;47.866;-4.222;2024-02-28T07:35:00;31.13;;;23.67;;
44428;SDS011;30134;47.866;-4.222;2024-02-28T07:37:27;31.33;;;23.45;;
44428;SDS011;30134;47.866;-4.222;2024-02-28T07:39:53;30.60;;;24.23;;
44428;SDS011;30134;47.866;-4.222;2024-02-28T07:42:19;28.77;;;24.58;;
44428;SDS011;30134;47.866;-4.222;2024-02-28T07:44:45;29.98;;;24.20;;
44428;SDS011;30134;47.866;-4.222;2024-02-28T07:47:11;28.50;;;23.13;;
44428;SDS011;30134;47.866;-4.222;2024-02-28T07:49:37;31.58;;;24.90;;
44428;SDS011;30134;47.866;-4.222;2024-02-28T07:52:03;45.80;;;35.40;;
44428;SDS011;30134;47.866;-4.222;2024-02-28T07:54:29;55.22;;;43.80;;
44428;SDS011;30134;47.866;-4.222;2024-02-28T07:56:55;61.33;;;48.85;;
44428;SDS011;30134;47.866;-4.222;2024-02-28T07:59:21;65.05;;;52.63;;
44428;SDS011;30134;47.866;-4.222;2024-02-28T08:01:47;64.70;;;51.55;;
44428;SDS011;30134;47.866;-4.222;2024-02-28T08:04:19;61.17;;;49.90;;
44428;SDS011;30134;47.866;-4.222;2024-02-28T08:06:45;64.18;;;50.88;;
44428;SDS011;30134;47.866;-4.222;2024-02-28T08:09:11;64.65;;;51.35;;
44428;SDS011;30134;47.866;-4.222;2024-02-28T08:11:40;70.85;;;54.17;;
44428;SDS011;30134;47.866;-4.222;2024-02-28T08:14:06;65.70;;;52.75;;
44428;SDS011;30134;47.866;-4.222;2024-02-28T08:16:32;63.60;;;50.97;;
44428;SDS011;30134;47.866;-4.222;2024-02-28T08:18:58;64.32;;;50.70;;
44428;SDS011;30134;47.866;-4.222;2024-02-28T08:21:24;57.95;;;47.75;;
44428;SDS011;30134;47.866;-4.222;2024-02-28T08:23:52;60.03;;;49.58;;
44428;SDS011;30134;47.866;-4.222;2024-02-28T08:26:18;58.60;;;48.20;;
44428;SDS011;30134;47.866;-4.222;2024-02-28T08:28:44;59.13;;;47.90;;
44428;SDS011;30134;47.866;-4.222;2024-02-28T08:31:10;58.70;;;46.10;;
44428;SDS011;30134;47.866;-4.222;2024-02-28T08:33:36;57.05;;;46.00;;
44428;SDS011;30134;47.866;-4.222;2024-02-28T08:36:02;54.88;;;45.10;;
44428;SDS011;30134;47.866;-4.222;2024-02-28T08:38:29;55.67;;;44.05;;
44428;SDS011;30134;47.866;-4.222;2024-02-28T08:40:55;57.50;;;44.53;;
44428;SDS011;30134;47.866;-4.222;2024-02-28T08:43:21;56.03;;;45.95;;
44428;SDS011;30134;47.866;-4.222;2024-02-28T08:45:47;57.97;;;47.13;;
44428;SDS011;30134;47.866;-4.222;2024-02-28T08:48:15;56.47;;;45.15;;
44428;SDS011;30134;47.866;-4.222;2024-02-28T08:50:41;52.60;;;43.72;;
44428;SDS011;30134;47.866;-4.222;2024-02-28T08:53:07;51.17;;;41.33;;
44428;SDS011;30134;47.866;-4.222;2024-02-28T08:55:33;42.90;;;34.00;;
44428;SDS011;30134;47.866;-4.222;2024-02-28T08:57:59;30.70;;;26.02;;
44428;SDS011;30134;47.866;-4.222;2024-02-28T09:00:25;37.40;;;28.98;;
44428;SDS011;30134;47.866;-4.222;2024-02-28T09:02:51;38.15;;;30.58;;
44428;SDS011;30134;47.866;-4.222;2024-02-28T09:05:17;41.15;;;31.88;;
44428;SDS011;30134;47.866;-4.222;2024-02-28T09:07:43;41.38;;;33.47;;
44428;SDS011;30134;47.866;-4.222;2024-02-28T09:10:09;43.30;;;33.67;;
44428;SDS011;30134;47.866;-4.222;2024-02-28T09:12:36;42.50;;;34.60;;
44428;SDS011;30134;47.866;-4.222;2024-02-28T09:15:02;40.95;;;33.45;;
44428;SDS011;30134;47.866;-4.222;2024-02-28T09:17:28;42.50;;;33.60;;
44428;SDS011;30134;47.866;-4.222;2024-02-28T09:19:56;41.60;;;33.10;;
44428;SDS011;30134;47.866;-4.222;2024-02-28T09:22:22;43.38;;;34.35;;
44428;SDS011;30134;47.866;-4.222;2024-02-28T09:24:50;41.92;;;33.60;;
44428;SDS011;30134;47.866;-4.222;2024-02-28T09:27:16;40.67;;;32.13;;
44428;SDS011;30134;47.866;-4.222;2024-02-28T09:29:43;38.38;;;31.10;;
44428;SDS011;30134;47.866;-4.222;2024-02-28T09:32:09;36.55;;;29.58;;
44428;SDS011;30134;47.866;-4.222;2024-02-28T09:34:35;38.38;;;32.13;;
44428;SDS011;30134;47.866;-4.222;2024-02-28T09:37:02;36.05;;;29.33;;
44428;SDS011;30134;47.866;-4.222;2024-02-28T09:39:29;40.63;;;31.30;;
44428;SDS011;30134;47.866;-4.222;2024-02-28T09:41:55;36.40;;;29.70;;
44428;SDS011;30134;47.866;-4.222;2024-02-28T09:44:22;34.45;;;28.25;;
44428;SDS011;30134;47.866;-4.222;2024-02-28T09:46:49;36.75;;;30.05;;
44428;SDS011;30134;47.866;-4.222;2024-02-28T09:49:17;34.88;;;27.90;;
44428;SDS011;30134;47.866;-4.222;2024-02-28T09:51:44;35.17;;;28.52;;
44428;SDS011;30134;47.866;-4.222;2024-02-28T09:54:17;33.67;;;27.37;;
44428;SDS011;30134;47.866;-4.222;2024-02-28T09:56:51;43.42;;;30.48;;
44428;SDS011;30134;47.866;-4.222;2024-02-28T09:59:20;40.15;;;29.98;;
44428;SDS011;30134;47.866;-4.222;2024-02-28T10:01:52;35.13;;;27.67;;
44428;SDS011;30134;47.866;-4.222;2024-02-28T10:06:52;32.95;;;22.50;;
44428;SDS011;30134;47.866;-4.222;2024-02-28T10:09:19;30.52;;;21.08;;
44428;SDS011;30134;47.866;-4.222;2024-02-28T10:11:45;32.08;;;20.90;;
44428;SDS011;30134;47.866;-4.222;2024-02-28T10:14:11;31.48;;;19.65;;
44428;SDS011;30134;47.866;-4.222;2024-02-28T10:16:46;26.98;;;18.48;;
44428;SDS011;30134;47.866;-4.222;2024-02-28T10:19:12;27.65;;;16.33;;
44428;SDS011;30134;47.866;-4.222;2024-02-28T10:21:38;22.65;;;14.80;;
44428;SDS011;30134;47.866;-4.222;2024-02-28T10:24:04;27.95;;;15.38;;
44428;SDS011;30134;47.866;-4.222;2024-02-28T10:26:30;25.92;;;13.98;;
44428;SDS011;30134;47.866;-4.222;2024-02-28T10:29:01;23.23;;;12.32;;
44428;SDS011;30134;47.866;-4.222;2024-02-28T10:31:31;22.73;;;11.98;;
44428;SDS011;30134;47.866;-4.222;2024-02-28T10:33:58;18.58;;;12.30;;
44428;SDS011;30134;47.866;-4.222;2024-02-28T10:36:26;17.25;;;11.25;;
44428;SDS011;30134;47.866;-4.222;2024-02-28T10:38:57;16.35;;;9.90;;
44428;SDS011;30134;47.866;-4.222;2024-02-28T10:41:25;21.77;;;10.75;;
44428;SDS011;30134;47.866;-4.222;2024-02-28T10:43:53;20.05;;;8.60;;
44428;SDS011;30134;47.866;-4.222;2024-02-28T10:46:20;13.30;;;8.35;;
44428;SDS011;30134;47.866;-4.222;2024-02-28T10:48:46;15.93;;;8.55;;
44428;SDS011;30134;47.866;-4.222;2024-02-28T10:51:18;18.23;;;7.32;;
44428;SDS011;30134;47.866;-4.222;2024-02-28T10:53:55;15.00;;;6.45;;
44428;SDS011;30134;47.866;-4.222;2024-02-28T10:56:37;10.65;;;5.00;;
44428;SDS011;30134;47.866;-4.222;2024-02-28T10:59:09;12.98;;;3.97;;
44428;SDS011;30134;47.866;-4.222;2024-02-28T11:01:36;9.15;;;4.60;;
44428;SDS011;30134;47.866;-4.222;2024-02-28T11:04:07;5.60;;;3.40;;
44428;SDS011;30134;47.866;-4.222;2024-02-28T11:06:47;8.20;;;3.25;;
44428;SDS011;30134;47.866;-4.222;2024-02-28T11:09:19;5.25;;;2.50;;
44428;SDS011;30134;47.866;-4.222;2024-02-28T11:11:51;5.32;;;2.33;;
44428;SDS011;30134;47.866;-4.222;2024-02-28T11:14:17;6.22;;;2.60;;
44428;SDS011;30134;47.866;-4.222;2024-02-28T11:17:04;4.82;;;2.50;;
44428;SDS011;30134;47.866;-4.222;2024-02-28T11:19:31;4.38;;;2.00;;
44428;SDS011;30134;47.866;-4.222;2024-02-28T11:21:59;3.78;;;1.77;;
44428;SDS011;30134;47.866;-4.222;2024-02-28T11:24:29;4.93;;;2.00;;
44428;SDS011;30134;47.866;-4.222;2024-02-28T11:26:57;6.72;;;2.17;;
44428;SDS011;30134;47.866;-4.222;2024-02-28T11:29:26;4.00;;;1.63;;
44428;SDS011;30134;47.866;-4.222;2024-02-28T11:31:54;6.18;;;1.77;;
44428;SDS011;30134;47.866;-4.222;2024-02-28T11:34:20;3.83;;;1.30;;
44428;SDS011;30134;47.866;-4.222;2024-02-28T11:36:47;3.00;;;1.35;;
44428;SDS011;30134;47.866;-4.222;2024-02-28T11:39:14;3.42;;;1.30;;
44428;SDS011;30134;47.866;-4.222;2024-02-28T11:41:41;3.05;;;1.30;;
44428;SDS011;30134;47.866;-4.222;2024-02-28T11:44:11;6.68;;;1.60;;
44428;SDS011;30134;47.866;-4.222;2024-02-28T11:46:45;5.80;;;1.52;;
44428;SDS011;30134;47.866;-4.222;2024-02-28T11:49:12;4.30;;;1.55;;
44428;SDS011;30134;47.866;-4.222;2024-02-28T11:51:42;6.85;;;2.00;;
44428;SDS011;30134;47.866;-4.222;2024-02-28T11:54:09;4.10;;;1.70;;
44428;SDS011;30134;47.866;-4.222;2024-02-28T11:56:37;2.88;;;1.50;;
44428;SDS011;30134;47.866;-4.222;2024-02-28T11:59:04;3.13;;;1.27;;
44428;SDS011;30134;47.866;-4.222;2024-02-28T12:01:37;3.40;;;1.25;;
44428;SDS011;30134;47.866;-4.222;2024-02-28T12:04:09;5.43;;;1.85;;
44428;SDS011;30134;47.866;-4.222;2024-02-28T12:06:37;6.68;;;1.95;;
44428;SDS011;30134;47.866;-4.222;2024-02-28T12:09:03;7.28;;;2.72;;
44428;SDS011;30134;47.866;-4.222;2024-02-28T12:11:32;5.28;;;3.28;;
44428;SDS011;30134;47.866;-4.222;2024-02-28T12:13:58;8.00;;;4.32;;
44428;SDS011;30134;47.866;-4.222;2024-02-28T12:16:24;10.00;;;5.70;;
44428;SDS011;30134;47.866;-4.222;2024-02-28T12:18:52;11.50;;;6.95;;
44428;SDS011;30134;47.866;-4.222;2024-02-28T12:21:21;11.27;;;7.38;;
44428;SDS011;30134;47.866;-4.222;2024-02-28T12:23:48;10.95;;;8.25;;
44428;SDS011;30134;47.866;-4.222;2024-02-28T12:26:18;10.18;;;7.53;;
44428;SDS011;30134;47.866;-4.222;2024-02-28T12:28:45;11.90;;;8.55;;
44428;SDS011;30134;47.866;-4.222;2024-02-28T12:31:11;16.02;;;9.70;;
44428;SDS011;30134;47.866;-4.222;2024-02-28T12:33:40;14.98;;;9.50;;
44428;SDS011;30134;47.866;-4.222;2024-02-28T12:36:07;14.30;;;9.32;;
44428;SDS011;30134;47.866;-4.222;2024-02-28T12:38:39;11.55;;;8.45;;
44428;SDS011;30134;47.866;-4.222;2024-02-28T12:41:06;12.18;;;9.05;;
44428;SDS011;30134;47.866;-4.222;2024-02-28T12:43:33;15.52;;;8.75;;
44428;SDS011;30134;47.866;-4.222;2024-02-28T12:45:59;12.50;;;9.07;;
44428;SDS011;30134;47.866;-4.222;2024-02-28T12:48:25;12.25;;;8.05;;
44428;SDS011;30134;47.866;-4.222;2024-02-28T12:50:51;11.80;;;7.70;;
44428;SDS011;30134;47.866;-4.222;2024-02-28T12:53:17;12.80;;;7.28;;
44428;SDS011;30134;47.866;-4.222;2024-02-28T12:55:43;10.30;;;7.22;;
44428;SDS011;30134;47.866;-4.222;2024-02-28T12:58:10;10.88;;;6.60;;
44428;SDS011;30134;47.866;-4.222;2024-02-28T13:00:36;13.63;;;6.22;;
44428;SDS011;30134;47.866;-4.222;2024-02-28T13:03:02;11.82;;;6.35;;
44428;SDS011;30134;47.866;-4.222;2024-02-28T13:05:29;12.02;;;6.35;;
44428;SDS011;30134;47.866;-4.222;2024-02-28T13:07:55;11.05;;;6.05;;
44428;SDS011;30134;47.866;-4.222;2024-02-28T13:10:21;9.63;;;5.10;;
44428;SDS011;30134;47.866;-4.222;2024-02-28T13:12:47;7.20;;;4.57;;
44428;SDS011;30134;47.866;-4.222;2024-02-28T13:15:13;11.90;;;3.60;;
44428;SDS011;30134;47.866;-4.222;2024-02-28T13:17:39;10.02;;;3.33;;
44428;SDS011;30134;47.866;-4.222;2024-02-28T13:20:07;6.15;;;3.45;;
44428;SDS011;30134;47.866;-4.222;2024-02-28T13:22:33;5.10;;;2.80;;
44428;SDS011;30134;47.866;-4.222;2024-02-28T13:24:59;3.50;;;2.28;;
44428;SDS011;30134;47.866;-4.222;2024-02-28T13:27:25;2.88;;;1.70;;
44428;SDS011;30134;47.866;-4.222;2024-02-28T13:29:52;4.50;;;2.17;;
44428;SDS011;30134;47.866;-4.222;2024-02-28T13:32:18;6.20;;;1.98;;
44428;SDS011;30134;47.866;-4.222;2024-02-28T13:34:44;3.22;;;1.45;;
44428;SDS011;30134;47.866;-4.222;2024-02-28T13:37:10;4.40;;;2.15;;
44428;SDS011;30134;47.866;-4.222;2024-02-28T13:39:36;4.20;;;1.95;;
44428;SDS011;30134;47.866;-4.222;2024-02-28T13:42:02;2.80;;;1.38;;
44428;SDS011;30134;47.866;-4.222;2024-02-28T13:44:31;2.42;;;1.48;;
44428;SDS011;30134;47.866;-4.222;2024-02-28T13:46:57;3.10;;;1.52;;
44428;SDS011;30134;47.866;-4.222;2024-02-28T13:49:23;4.63;;;1.55;;
44428;SDS011;30134;47.866;-4.222;2024-02-28T13:51:49;3.60;;;1.70;;
44428;SDS011;30134;47.866;-4.222;2024-02-28T13:54:16;4.10;;;1.40;;
44428;SDS011;30134;47.866;-4.222;2024-02-28T13:56:42;1.95;;;1.35;;
44428;SDS011;30134;47.866;-4.222;2024-02-28T13:59:08;2.60;;;1.38;;
44428;SDS011;30134;47.866;-4.222;2024-02-28T14:01:34;2.20;;;1.30;;
44428;SDS011;30134;47.866;-4.222;2024-02-28T14:04:01;3.40;;;1.50;;
44428;SDS011;30134;47.866;-4.222;2024-02-28T14:06:28;4.38;;;1.90;;
44428;SDS011;30134;47.866;-4.222;2024-02-28T14:08:55;2.95;;;1.30;;
44428;SDS011;30134;47.866;-4.222;2024-02-28T14:11:22;4.65;;;1.23;;
44428;SDS011;30134;47.866;-4.222;2024-02-28T14:13:48;1.70;;;1.13;;
44428;SDS011;30134;47.866;-4.222;2024-02-28T14:16:14;2.53;;;1.10;;
44428;SDS011;30134;47.866;-4.222;2024-02-28T14:18:40;3.85;;;1.40;;
44428;SDS011;30134;47.866;-4.222;2024-02-28T14:21:06;2.17;;;1.30;;
44428;SDS011;30134;47.866;-4.222;2024-02-28T14:23:32;2.47;;;1.00;;